createdAt,value
2018-03-26T00:01:45.949Z,51.87
2018-03-26T00:04:12.229Z,52.20
2018-03-26T00:06:38.524Z,52.06
2018-03-26T00:09:04.832Z,51.43
2018-03-26T00:11:31.097Z,51.30
2018-03-26T00:13:57.391Z,51.50
2018-03-26T00:16:23.649Z,51.40
2018-03-26T00:18:49.931Z,51.01
2018-03-26T00:21:16.218Z,51.28
2018-03-26T00:23:42.466Z,51.87
2018-03-26T00:26:08.722Z,52.45
2018-03-26T00:28:34.999Z,52.26
2018-03-26T00:31:01.272Z,52.33
2018-03-26T00:33:27.558Z,52.34
2018-03-26T00:35:53.873Z,52.53
2018-03-26T00:38:20.164Z,51.82
2018-03-26T00:40:46.425Z,51.46
2018-03-26T00:43:12.661Z,51.03
2018-03-26T00:45:38.905Z,51.04
2018-03-26T00:48:05.184Z,51.98
2018-03-26T00:50:31.457Z,51.98
2018-03-26T00:52:57.704Z,51.00
2018-03-26T00:55:23.938Z,51.05
2018-03-26T00:57:50.180Z,51.17
2018-03-26T01:00:16.501Z,51.04
2018-03-26T01:02:42.888Z,51.26
2018-03-26T01:05:09.132Z,51.25
2018-03-26T01:07:35.436Z,51.37
2018-03-26T01:10:01.717Z,51.87
2018-03-26T01:12:27.973Z,51.89
2018-03-26T01:14:54.241Z,52.06
2018-03-26T01:17:20.473Z,52.12
2018-03-26T01:19:46.701Z,52.13
2018-03-26T01:22:13.002Z,51.95
2018-03-26T01:24:39.233Z,52.08
2018-03-26T01:27:05.492Z,52.37
2018-03-26T01:29:31.764Z,52.68
2018-03-26T01:31:58.010Z,52.49
2018-03-26T01:34:24.319Z,52.18
2018-03-26T01:36:50.592Z,52.14
2018-03-26T01:39:16.900Z,52.15
2018-03-26T01:41:43.196Z,52.48
2018-03-26T01:44:09.421Z,52.19
2018-03-26T01:46:35.674Z,53.06
2018-03-26T01:49:01.945Z,52.22
2018-03-26T01:51:28.246Z,51.92
2018-03-26T01:53:54.483Z,51.97
2018-03-26T01:56:20.720Z,52.11
2018-03-26T01:58:46.977Z,52.37
2018-03-26T02:01:13.206Z,52.47
2018-03-26T02:03:39.514Z,52.05
2018-03-26T02:06:05.812Z,51.88
2018-03-26T02:08:32.065Z,52.04
2018-03-26T02:10:58.332Z,52.12
2018-03-26T02:13:24.609Z,52.21
2018-03-26T02:15:50.889Z,52.11
2018-03-26T02:18:17.180Z,52.66
2018-03-26T02:20:43.407Z,53.08
2018-03-26T02:23:09.677Z,52.77
2018-03-26T02:25:35.933Z,52.83
2018-03-26T02:28:02.229Z,52.94
2018-03-26T02:30:28.502Z,52.69
2018-03-26T02:32:54.741Z,52.34
2018-03-26T02:35:20.982Z,53.19
2018-03-26T02:37:47.288Z,53.06
2018-03-26T02:40:13.537Z,52.69
2018-03-26T02:42:39.787Z,52.31
2018-03-26T02:45:06.050Z,52.20
2018-03-26T02:47:32.294Z,52.43
2018-03-26T02:49:58.533Z,52.50
2018-03-26T02:52:24.812Z,52.27
2018-03-26T02:54:51.053Z,51.87
2018-03-26T02:57:18.385Z,52.49
2018-03-26T02:59:44.653Z,52.38
2018-03-26T03:02:10.898Z,53.02
2018-03-26T03:04:37.154Z,53.84
2018-03-26T03:07:03.436Z,53.11
2018-03-26T03:09:29.677Z,53.14
2018-03-26T03:11:55.929Z,53.19
2018-03-26T03:14:22.188Z,53.43
2018-03-26T03:16:48.417Z,53.48
2018-03-26T03:19:14.668Z,53.70
2018-03-26T03:21:40.944Z,52.90
2018-03-26T03:24:07.177Z,52.46
2018-03-26T03:26:33.402Z,52.36
2018-03-26T03:28:59.692Z,52.33
2018-03-26T03:31:25.949Z,53.64
2018-03-26T03:33:52.200Z,54.02
2018-03-26T03:36:18.469Z,53.63
2018-03-26T03:38:44.717Z,53.45
2018-03-26T03:41:10.964Z,53.39
2018-03-26T03:43:37.249Z,52.89
2018-03-26T03:46:03.519Z,52.95
2018-03-26T03:48:29.944Z,53.13
2018-03-26T03:50:56.328Z,52.69
2018-03-26T03:53:22.599Z,53.20
2018-03-26T03:55:49.027Z,53.05
2018-03-26T03:58:15.360Z,52.94
2018-03-26T04:00:41.632Z,52.78
2018-03-26T04:03:07.889Z,53.05
2018-03-26T04:05:34.160Z,52.83
2018-03-26T04:08:00.437Z,52.63
2018-03-26T04:10:26.716Z,52.69
2018-03-26T04:12:54.109Z,52.97
2018-03-26T04:15:20.384Z,52.89
2018-03-26T04:17:46.620Z,52.71
2018-03-26T04:20:12.949Z,53.42
2018-03-26T04:22:39.209Z,53.77
2018-03-26T04:25:05.479Z,53.68
2018-03-26T04:27:31.777Z,53.88
2018-03-26T04:29:58.049Z,53.54
2018-03-26T04:32:24.302Z,52.84
2018-03-26T04:34:50.633Z,53.00
2018-03-26T04:37:16.953Z,53.19
2018-03-26T04:39:43.201Z,52.90
2018-03-26T04:42:09.484Z,53.12
2018-03-26T04:44:35.764Z,53.04
2018-03-26T04:47:02.038Z,53.12
2018-03-26T04:49:28.310Z,53.13
2018-03-26T04:51:54.608Z,53.08
2018-03-26T04:54:20.889Z,53.27
2018-03-26T04:56:47.149Z,53.47
2018-03-26T04:59:13.414Z,53.63
2018-03-26T05:01:39.653Z,53.39
2018-03-26T05:04:07.049Z,53.47
2018-03-26T05:06:33.285Z,53.44
2018-03-26T05:08:59.596Z,53.39
2018-03-26T05:11:25.867Z,53.30
2018-03-26T05:13:52.101Z,53.92
2018-03-26T05:16:18.328Z,53.58
2018-03-26T05:18:44.593Z,53.37
2018-03-26T05:21:10.837Z,52.98
2018-03-26T05:23:37.090Z,53.13
2018-03-26T05:26:03.477Z,53.12
2018-03-26T05:28:29.711Z,53.13
2018-03-26T05:30:55.970Z,53.05
2018-03-26T05:33:22.238Z,53.66
2018-03-26T05:35:48.476Z,53.91
2018-03-26T05:38:14.712Z,53.79
2018-03-26T05:40:40.980Z,53.48
2018-03-26T05:43:07.211Z,53.50
2018-03-26T05:45:33.464Z,53.59
2018-03-26T05:47:59.797Z,53.11
2018-03-26T05:50:26.054Z,53.23
2018-03-26T05:52:52.284Z,53.69
2018-03-26T05:55:18.558Z,54.02
2018-03-26T05:57:44.812Z,54.31
2018-03-26T06:00:11.078Z,54.28
2018-03-26T06:02:37.337Z,54.08
2018-03-26T06:05:03.572Z,54.30
2018-03-26T06:07:29.805Z,54.76
2018-03-26T06:09:56.084Z,54.48
2018-03-26T06:12:22.340Z,54.64
2018-03-26T06:14:48.588Z,54.47
2018-03-26T06:17:15.941Z,54.44
2018-03-26T06:19:42.216Z,54.02
2018-03-26T06:22:08.561Z,53.92
2018-03-26T06:24:34.894Z,53.69
2018-03-26T06:27:01.192Z,53.26
2018-03-26T06:29:27.497Z,52.96
2018-03-26T06:31:53.820Z,53.03
2018-03-26T06:34:20.097Z,52.96
2018-03-26T06:39:44.932Z,52.75
2018-03-26T06:42:11.209Z,52.69
2018-03-26T06:44:37.474Z,52.68
2018-03-26T06:47:03.758Z,52.38
2018-03-26T06:49:30.063Z,53.03
2018-03-26T06:51:56.308Z,52.55
2018-03-26T06:54:22.537Z,52.65
2018-03-26T06:56:48.844Z,52.89
2018-03-26T06:59:15.108Z,52.66
2018-03-26T07:01:41.344Z,52.60
2018-03-26T07:04:07.625Z,52.75
2018-03-26T07:06:33.852Z,52.73
2018-03-26T07:09:00.093Z,53.24
2018-03-26T07:11:26.377Z,53.21
2018-03-26T07:13:52.649Z,52.84
2018-03-26T07:16:18.933Z,53.59
2018-03-26T07:18:45.213Z,53.48
2018-03-26T07:21:11.460Z,53.63
2018-03-26T07:23:37.718Z,52.50
2018-03-26T07:26:04.017Z,52.43
2018-03-26T07:28:30.285Z,52.02
2018-03-26T07:30:56.540Z,52.51
2018-03-26T07:33:22.817Z,52.33
2018-03-26T07:35:49.074Z,52.25
2018-03-26T07:38:15.329Z,52.28
2018-03-26T07:40:41.606Z,51.77
2018-03-26T07:43:07.841Z,51.50
2018-03-26T07:45:34.081Z,51.66
2018-03-26T07:48:00.393Z,51.91
2018-03-26T07:50:26.633Z,51.44
2018-03-26T07:52:52.861Z,51.26
2018-03-26T07:55:19.184Z,51.04
2018-03-26T07:57:45.417Z,51.06
2018-03-26T08:00:11.724Z,50.67
2018-03-26T08:02:38.000Z,50.69
2018-03-26T08:05:04.281Z,49.80
2018-03-26T08:07:30.536Z,49.54
2018-03-26T08:09:56.808Z,49.29
2018-03-26T08:12:23.045Z,49.37
2018-03-26T08:14:49.291Z,48.37
2018-03-26T08:17:15.581Z,47.41
2018-03-26T08:19:41.809Z,47.33
2018-03-26T08:22:08.093Z,46.92
2018-03-26T08:24:34.424Z,46.74
2018-03-26T08:27:00.673Z,46.10
2018-03-26T08:29:26.940Z,46.08
2018-03-26T08:31:53.295Z,46.04
2018-03-26T08:34:19.525Z,45.42
2018-03-26T08:36:45.788Z,44.47
2018-03-26T08:39:12.069Z,44.55
2018-03-26T08:41:38.314Z,44.23
2018-03-26T08:44:04.564Z,43.28
2018-03-26T08:46:30.860Z,42.85
2018-03-26T08:48:57.135Z,42.37
2018-03-26T08:51:23.401Z,40.97
2018-03-26T08:53:49.697Z,41.28
2018-03-26T08:56:15.994Z,41.19
2018-03-26T08:58:42.232Z,40.76
2018-03-26T09:01:08.577Z,40.19
2018-03-26T09:03:34.865Z,39.42
2018-03-26T09:06:01.114Z,39.43
2018-03-26T09:08:27.380Z,39.70
2018-03-26T09:10:53.641Z,38.68
2018-03-26T09:13:26.990Z,37.39
2018-03-26T09:15:53.245Z,37.88
2018-03-26T09:18:19.502Z,38.52
2018-03-26T09:20:45.832Z,38.34
2018-03-26T09:23:12.116Z,38.60
2018-03-26T09:25:38.382Z,39.29
2018-03-26T09:28:04.684Z,38.94
2018-03-26T09:30:30.930Z,38.88
2018-03-26T09:32:57.182Z,38.06
2018-03-26T09:35:23.579Z,38.28
2018-03-26T09:37:49.865Z,37.97
2018-03-26T09:40:16.148Z,38.77
2018-03-26T09:42:42.488Z,38.49
2018-03-26T09:45:08.762Z,39.00
2018-03-26T09:47:35.036Z,39.02
2018-03-26T09:50:01.364Z,39.84
2018-03-26T09:52:27.634Z,40.05
2018-03-26T09:54:53.939Z,40.31
2018-03-26T09:57:20.256Z,40.37
2018-03-26T09:59:46.562Z,40.56
2018-03-26T10:02:12.854Z,41.30
2018-03-26T10:04:39.138Z,41.07
2018-03-26T10:07:05.411Z,40.98
2018-03-26T10:09:31.684Z,41.30
2018-03-26T10:11:57.964Z,41.86
2018-03-26T10:14:24.210Z,41.50
2018-03-26T10:16:50.474Z,41.00
2018-03-26T10:19:16.768Z,41.04
2018-03-26T10:21:43.009Z,41.07
2018-03-26T10:24:09.268Z,40.81
2018-03-26T10:26:35.572Z,41.17
2018-03-26T10:29:01.841Z,40.79
2018-03-26T10:31:28.084Z,41.38
2018-03-26T10:33:54.445Z,41.48
2018-03-26T10:36:20.688Z,41.27
2018-03-26T10:38:46.933Z,41.32
2018-03-26T10:41:13.241Z,41.88
2018-03-26T10:43:39.513Z,41.71
2018-03-26T10:46:05.816Z,41.78
2018-03-26T10:48:32.089Z,41.95
2018-03-26T10:50:58.356Z,42.21
2018-03-26T10:53:24.620Z,42.76
2018-03-26T10:55:50.904Z,42.61
2018-03-26T10:58:17.161Z,43.19
2018-03-26T11:00:43.416Z,42.82
2018-03-26T11:03:09.716Z,43.31
2018-03-26T11:05:35.995Z,43.58
2018-03-26T11:08:02.252Z,44.75
2018-03-26T11:10:28.558Z,44.56
2018-03-26T11:12:54.833Z,45.13
2018-03-26T11:15:21.117Z,44.97
2018-03-26T11:17:47.401Z,44.82
2018-03-26T11:20:13.661Z,44.67
2018-03-26T11:22:39.960Z,44.85
2018-03-26T11:25:06.273Z,44.67
2018-03-26T11:27:32.517Z,44.62
2018-03-26T11:29:58.812Z,44.42
2018-03-26T11:32:25.083Z,44.19
2018-03-26T11:34:51.340Z,44.56
2018-03-26T11:37:17.589Z,44.94
2018-03-26T11:39:44.006Z,44.70
2018-03-26T11:42:10.260Z,44.50
2018-03-26T11:44:36.508Z,44.46
2018-03-26T11:47:02.800Z,44.68
2018-03-26T11:49:29.116Z,45.16
2018-03-26T11:51:55.333Z,45.27
2018-03-26T11:54:21.608Z,45.48
2018-03-26T11:56:47.853Z,45.82
2018-03-26T11:59:14.153Z,46.44
2018-03-26T12:01:40.444Z,46.28
2018-03-26T12:04:06.716Z,46.12
2018-03-26T12:06:32.957Z,46.01
2018-03-26T12:08:59.242Z,46.08
2018-03-26T12:11:25.493Z,45.52
2018-03-26T12:13:51.741Z,45.98
2018-03-26T12:16:18.019Z,46.57
2018-03-26T12:18:44.279Z,46.50
2018-03-26T12:21:10.568Z,46.63
2018-03-26T12:23:48.909Z,46.38
2018-03-26T12:26:15.181Z,46.71
2018-03-26T12:28:53.580Z,46.79
2018-03-26T12:31:19.825Z,46.79
2018-03-26T12:33:58.287Z,46.78
2018-03-26T12:36:24.634Z,46.48
2018-03-26T12:38:50.906Z,46.63
2018-03-26T12:41:17.181Z,46.34
2018-03-26T12:43:43.455Z,45.62
2018-03-26T12:46:21.932Z,45.33
2018-03-26T12:48:48.186Z,45.53
2018-03-26T12:51:26.681Z,45.64
2018-03-26T12:53:52.941Z,45.34
2018-03-26T12:56:19.190Z,45.40
2018-03-26T12:58:48.578Z,45.50
2018-03-26T13:01:27.089Z,46.24
2018-03-26T13:03:53.383Z,46.19
2018-03-26T13:06:19.657Z,46.13
2018-03-26T13:08:45.938Z,45.47
2018-03-26T13:11:12.269Z,45.34
2018-03-26T13:13:38.507Z,45.33
2018-03-26T13:16:04.809Z,45.30
2018-03-26T13:18:31.094Z,45.52
2018-03-26T13:20:57.357Z,46.04
2018-03-26T13:23:23.637Z,46.44
2018-03-26T13:25:49.926Z,46.73
2018-03-26T13:28:16.254Z,47.27
2018-03-26T13:30:42.504Z,47.24
2018-03-26T13:33:08.778Z,47.94
2018-03-26T13:35:35.050Z,47.91
2018-03-26T13:38:01.301Z,48.08
2018-03-26T13:40:27.564Z,48.14
2018-03-26T13:42:53.829Z,48.68
2018-03-26T13:45:20.066Z,49.04
2018-03-26T13:47:46.333Z,49.11
2018-03-26T13:50:12.585Z,49.43
2018-03-26T13:52:38.860Z,50.29
2018-03-26T13:55:05.164Z,50.27
2018-03-26T13:57:31.441Z,50.72
2018-03-26T13:59:57.694Z,50.81
2018-03-26T14:02:23.974Z,50.98
2018-03-26T14:04:50.227Z,51.35
2018-03-26T14:07:16.465Z,52.18
2018-03-26T14:09:54.972Z,52.77
2018-03-26T14:12:33.460Z,52.58
2018-03-26T14:15:11.946Z,53.13
2018-03-26T14:17:49.237Z,52.96
2018-03-26T14:20:15.552Z,53.01
2018-03-26T14:22:41.820Z,53.04
2018-03-26T14:25:08.148Z,53.23
2018-03-26T14:27:34.440Z,53.72
2018-03-26T14:30:00.689Z,53.76
2018-03-26T14:32:27.027Z,53.71
2018-03-26T14:35:05.701Z,53.94
2018-03-26T14:37:31.905Z,54.22
2018-03-26T14:39:58.157Z,54.49
2018-03-26T14:42:24.470Z,54.58
2018-03-26T14:44:50.738Z,54.36
2018-03-26T14:47:17.012Z,54.26
2018-03-26T14:49:43.290Z,54.42
2018-03-26T14:52:09.553Z,54.70
2018-03-26T14:54:36.678Z,54.57
2018-03-26T14:57:02.973Z,55.04
2018-03-26T14:59:29.243Z,55.29
2018-03-26T15:01:55.492Z,55.82
2018-03-26T15:04:21.828Z,56.08
2018-03-26T15:06:48.105Z,56.46
2018-03-26T15:09:14.362Z,57.13
2018-03-26T15:11:40.633Z,57.45
2018-03-26T15:14:06.872Z,57.65
2018-03-26T15:16:33.107Z,57.29
2018-03-26T15:18:59.428Z,57.43
2018-03-26T15:21:25.664Z,57.31
2018-03-26T15:23:52.228Z,57.58
2018-03-26T15:26:18.585Z,57.63
2018-03-26T15:28:44.964Z,57.48
2018-03-26T15:31:11.218Z,57.54
2018-03-26T15:33:37.543Z,57.58
2018-03-26T15:36:03.828Z,56.41
2018-03-26T15:38:30.065Z,56.01
2018-03-26T15:40:56.573Z,56.51
2018-03-26T15:43:22.817Z,55.90
2018-03-26T15:45:49.049Z,56.17
2018-03-26T15:48:15.333Z,56.30
2018-03-26T15:50:41.637Z,56.40
2018-03-26T15:53:07.834Z,56.87
2018-03-26T15:55:34.116Z,56.63
2018-03-26T15:58:00.519Z,56.32
2018-03-26T16:00:26.773Z,56.45
2018-03-26T16:02:59.153Z,56.43
2018-03-26T16:05:25.500Z,56.26
2018-03-26T16:07:51.743Z,56.05
2018-03-26T16:10:18.017Z,55.71
2018-03-26T16:12:44.270Z,55.63
2018-03-26T16:15:10.570Z,55.33
2018-03-26T16:17:36.842Z,55.00
2018-03-26T16:20:03.125Z,54.80
2018-03-26T16:22:29.366Z,54.19
2018-03-26T16:24:55.638Z,54.89
2018-03-26T16:27:21.878Z,55.60
2018-03-26T16:29:48.123Z,55.77
2018-03-26T16:32:14.413Z,55.61
2018-03-26T16:34:40.668Z,56.07
2018-03-26T16:37:06.912Z,56.28
2018-03-26T16:39:33.213Z,56.29
2018-03-26T16:42:11.474Z,56.67
2018-03-26T16:44:37.804Z,57.03
2018-03-26T16:47:04.045Z,57.44
2018-03-26T16:49:30.371Z,57.53
2018-03-26T16:51:56.650Z,57.54
2018-03-26T16:54:22.909Z,57.84
2018-03-26T16:56:49.169Z,58.48
2018-03-26T16:59:15.424Z,58.16
2018-03-26T17:01:41.677Z,58.30
2018-03-26T17:04:07.969Z,57.93
2018-03-26T17:06:34.332Z,58.50
2018-03-26T17:09:00.568Z,58.52
2018-03-26T17:11:26.801Z,58.54
2018-03-26T17:13:53.064Z,58.67
2018-03-26T17:16:19.317Z,58.72
2018-03-26T17:18:45.566Z,58.86
2018-03-26T17:21:12.242Z,59.20
2018-03-26T17:23:38.906Z,59.25
2018-03-26T17:26:05.177Z,59.39
2018-03-26T17:28:31.565Z,59.76
2018-03-26T17:30:57.883Z,59.60
2018-03-26T17:33:24.273Z,59.57
2018-03-26T17:35:50.577Z,59.70
2018-03-26T17:38:16.845Z,59.88
2018-03-26T17:40:43.109Z,60.09
2018-03-26T17:43:09.484Z,60.13
2018-03-26T17:45:35.817Z,60.17
2018-03-26T17:48:02.155Z,59.63
2018-03-26T17:50:28.444Z,59.82
2018-03-26T17:52:54.789Z,59.75
2018-03-26T17:57:55.827Z,59.31
2018-03-26T18:00:22.177Z,58.99
2018-03-26T18:02:48.552Z,58.82
2018-03-26T18:05:14.997Z,58.60
2018-03-26T18:07:41.236Z,58.68
2018-03-26T18:10:07.666Z,58.81
2018-03-26T18:12:33.871Z,59.26
2018-03-26T18:15:00.338Z,59.92
2018-03-26T18:17:26.595Z,60.68
2018-03-26T18:19:53.194Z,60.63
2018-03-26T18:22:19.448Z,59.66
2018-03-26T18:24:45.719Z,59.53
2018-03-26T18:27:11.984Z,59.88
2018-03-26T18:29:38.350Z,60.17
2018-03-26T18:32:04.630Z,60.60
2018-03-26T18:34:31.035Z,60.50
2018-03-26T18:36:57.265Z,60.90
2018-03-26T18:39:23.594Z,60.82
2018-03-26T18:41:49.905Z,61.27
2018-03-26T18:44:16.348Z,60.99
2018-03-26T18:46:42.629Z,60.66
2018-03-26T18:49:08.969Z,61.05
2018-03-26T18:51:35.472Z,60.72
2018-03-26T18:54:01.802Z,60.28
2018-03-26T18:56:28.062Z,60.11
2018-03-26T18:58:54.316Z,60.20
2018-03-26T19:01:20.553Z,60.30
2018-03-26T19:03:47.100Z,60.33
2018-03-26T19:06:13.417Z,60.12
2018-03-26T19:08:39.745Z,59.70
2018-03-26T19:11:06.009Z,59.32
2018-03-26T19:13:32.274Z,59.38
2018-03-26T19:15:58.596Z,59.24
2018-03-26T19:18:24.913Z,59.08
2018-03-26T19:20:51.300Z,59.00
2018-03-26T19:23:17.532Z,58.95
2018-03-26T19:25:43.928Z,59.38
2018-03-26T19:28:10.185Z,59.82
2018-03-26T19:30:36.498Z,60.02
2018-03-26T19:33:02.760Z,61.11
2018-03-26T19:35:29.049Z,61.44
2018-03-26T19:37:55.298Z,61.44
2018-03-26T19:40:21.605Z,61.37
2018-03-26T19:42:47.895Z,61.06
2018-03-26T19:45:14.276Z,60.76
2018-03-26T19:47:40.758Z,60.54
2018-03-26T19:50:07.069Z,60.56
2018-03-26T19:52:33.359Z,61.03
2018-03-26T19:54:59.621Z,61.78
2018-03-26T19:57:25.807Z,62.30
2018-03-26T19:59:52.134Z,62.36
2018-03-26T20:02:18.404Z,62.31
2018-03-26T20:04:44.747Z,62.57
2018-03-26T20:07:10.993Z,62.70
2018-03-26T20:09:37.304Z,62.89
2018-03-26T20:12:04.812Z,63.36
2018-03-26T20:14:31.049Z,63.28
2018-03-26T20:16:57.395Z,63.38
2018-03-26T20:19:23.631Z,63.59
2018-03-26T20:21:49.961Z,64.34
2018-03-26T20:24:16.265Z,64.40
2018-03-26T20:26:42.516Z,64.30
2018-03-26T20:29:08.864Z,64.67
2018-03-26T20:31:35.149Z,64.89
2018-03-26T20:34:01.425Z,64.87
2018-03-26T20:36:27.680Z,64.64
2018-03-26T20:38:54.124Z,64.31
2018-03-26T20:41:20.502Z,64.09
2018-03-26T20:43:46.757Z,63.87
2018-03-26T20:46:13.088Z,63.98
2018-03-26T20:48:39.455Z,63.71
2018-03-26T20:51:05.792Z,63.73
2018-03-26T20:53:32.288Z,63.26
2018-03-26T20:55:58.662Z,63.11
2018-03-26T20:58:25.083Z,63.25
2018-03-26T21:00:51.453Z,63.25
2018-03-26T21:03:17.881Z,63.41
2018-03-26T21:05:44.110Z,63.29
2018-03-26T21:08:10.458Z,63.04
2018-03-26T21:10:37.736Z,63.37
2018-03-26T21:13:04.028Z,63.46
2018-03-26T21:15:30.696Z,63.94
2018-03-26T21:17:56.964Z,64.19
2018-03-26T21:20:23.204Z,64.37
2018-03-26T21:22:49.480Z,64.00
2018-03-26T21:25:15.720Z,64.03
2018-03-26T21:27:42.214Z,64.11
2018-03-26T21:30:08.530Z,64.59
2018-03-26T21:32:34.912Z,64.57
2018-03-26T21:35:01.243Z,64.83
2018-03-26T21:37:27.791Z,64.43
2018-03-26T21:39:54.117Z,65.29
2018-03-26T21:42:20.375Z,65.57
2018-03-26T21:44:46.798Z,65.46
2018-03-26T21:47:13.447Z,65.32
2018-03-26T21:49:39.846Z,64.99
2018-03-26T21:52:06.183Z,64.74
2018-03-26T21:54:32.529Z,65.44
2018-03-26T21:56:58.816Z,65.56
2018-03-26T21:59:25.359Z,65.37
2018-03-26T22:01:51.661Z,65.38
2018-03-26T22:04:18.220Z,65.39
2018-03-26T22:06:44.523Z,65.72
2018-03-26T22:09:10.833Z,66.00
2018-03-26T22:11:37.134Z,66.10
2018-03-26T22:14:03.485Z,66.02
2018-03-26T22:16:29.854Z,65.75
2018-03-26T22:18:56.229Z,65.86
2018-03-26T22:21:22.758Z,66.04
2018-03-26T22:23:49.049Z,66.01
2018-03-26T22:26:15.332Z,66.07
2018-03-26T22:28:41.645Z,65.75
2018-03-26T22:31:09.181Z,65.55
2018-03-26T22:33:35.469Z,65.76
2018-03-26T22:36:01.851Z,65.50
2018-03-26T22:38:28.332Z,65.34
2018-03-26T22:40:54.625Z,65.01
2018-03-26T22:43:20.919Z,65.07
2018-03-26T22:45:47.287Z,65.32
2018-03-26T22:48:13.621Z,65.12
2018-03-26T22:50:39.901Z,64.84
2018-03-26T22:53:06.379Z,64.37
2018-03-26T22:55:32.636Z,63.91
2018-03-26T22:57:59.135Z,63.67
2018-03-26T23:00:25.424Z,63.66
2018-03-26T23:02:51.857Z,63.44
2018-03-26T23:05:18.215Z,63.17
2018-03-26T23:07:44.585Z,63.10
2018-03-26T23:10:10.841Z,62.81
2018-03-26T23:12:37.173Z,62.98
2018-03-26T23:15:03.902Z,62.95
2018-03-26T23:17:30.193Z,63.05
2018-03-26T23:19:56.706Z,63.33
2018-03-26T23:22:35.052Z,63.54
2018-03-26T23:25:01.627Z,63.65
2018-03-26T23:27:27.976Z,63.55
2018-03-26T23:29:54.266Z,64.01
2018-03-26T23:32:20.757Z,63.97
2018-03-26T23:34:47.058Z,64.12
2018-03-26T23:37:13.558Z,64.29
2018-03-26T23:39:39.821Z,64.32
2018-03-26T23:42:06.389Z,64.34
2018-03-26T23:44:32.775Z,64.43
2018-03-26T23:46:59.096Z,64.60
2018-03-26T23:49:25.482Z,64.93
2018-03-26T23:51:51.918Z,64.87
2018-03-26T23:54:18.205Z,65.15
2018-03-26T23:56:44.785Z,65.20
2018-03-26T23:59:11.043Z,65.64
